createdAt,value
2022-12-03T00:01:13.584Z,101186.31
2022-12-03T00:03:40.143Z,101189.94
2022-12-03T00:06:06.876Z,101190.28
2022-12-03T00:08:33.300Z,101182.81
2022-12-03T00:10:59.790Z,101179.72
2022-12-03T00:13:26.192Z,101177.53
2022-12-03T00:15:52.729Z,101180.41
2022-12-03T00:18:19.169Z,101174.22
2022-12-03T00:20:45.577Z,101180.78
2022-12-03T00:23:12.030Z,101188.28
2022-12-03T00:25:38.440Z,101178.06
2022-12-03T00:28:04.858Z,101174.97
2022-12-03T00:30:31.322Z,101176.44
2022-12-03T00:32:57.729Z,101172.22
2022-12-03T00:35:24.164Z,101176.22
2022-12-03T00:37:50.592Z,101173.84
2022-12-03T00:40:17.039Z,101177.84
2022-12-03T00:42:43.455Z,101180.00
2022-12-03T00:45:10.322Z,101169.78
2022-12-03T00:47:36.788Z,101171.78
2022-12-03T00:50:03.781Z,101168.31
2022-12-03T00:52:30.271Z,101158.50
2022-12-03T00:54:56.720Z,101165.28
2022-12-03T00:57:23.158Z,101163.25
2022-12-03T00:59:49.636Z,101170.53
2022-12-03T01:02:16.075Z,101171.25
2022-12-03T01:04:42.643Z,101161.59
2022-12-03T01:07:09.182Z,101161.97
2022-12-03T01:09:35.581Z,101165.28
2022-12-03T01:12:02.031Z,101168.19
2022-12-03T01:14:28.556Z,101164.34
2022-12-03T01:16:55.061Z,101160.28
2022-12-03T01:19:21.545Z,101160.72
2022-12-03T01:21:49.869Z,101162.72
2022-12-03T01:24:16.631Z,101156.69
2022-12-03T01:26:43.533Z,101160.72
2022-12-03T01:29:09.988Z,101153.41
2022-12-03T01:31:55.189Z,101154.50
2022-12-03T01:34:21.617Z,101150.59
2022-12-03T01:36:48.080Z,101156.09
2022-12-03T01:39:14.487Z,101151.88
2022-12-03T01:41:41.493Z,101155.56
2022-12-03T01:44:20.962Z,101160.28
2022-12-03T01:46:48.325Z,101151.91
2022-12-03T01:49:21.407Z,101154.09
2022-12-03T01:51:49.682Z,101155.56
2022-12-03T01:54:19.683Z,101157.72
2022-12-03T01:56:46.523Z,101149.69
2022-12-03T01:59:17.551Z,101154.66
2022-12-03T02:01:44.168Z,101156.28
2022-12-03T02:04:15.617Z,101165.03
2022-12-03T02:06:42.853Z,101157.56
2022-12-03T02:09:13.266Z,101152.06
2022-12-03T02:11:46.893Z,101149.31
2022-12-03T02:14:20.104Z,101152.63
2022-12-03T02:16:46.684Z,101152.78
2022-12-03T02:19:25.486Z,101150.06
2022-12-03T02:22:03.971Z,101150.41
2022-12-03T02:24:37.376Z,101144.03
2022-12-03T02:27:03.935Z,101139.47
2022-12-03T02:29:30.641Z,101142.78
2022-12-03T02:31:57.315Z,101127.09
2022-12-03T02:34:41.603Z,101128.13
2022-12-03T02:37:13.201Z,101118.63
2022-12-03T02:39:42.748Z,101126.28
2022-12-03T02:42:28.950Z,101124.88
2022-12-03T02:45:00.654Z,101119.41
2022-12-03T02:47:31.919Z,101116.13
2022-12-03T02:49:59.027Z,101121.59
2022-12-03T02:52:25.967Z,101113.38
2022-12-03T02:54:52.639Z,101115.94
2022-12-03T02:57:19.821Z,101113.38
2022-12-03T02:59:46.579Z,101118.69
2022-12-03T03:02:14.672Z,101113.91
2022-12-03T03:04:42.347Z,101119.75
2022-12-03T03:07:09.645Z,101122.13
2022-12-03T03:09:36.648Z,101121.56
2022-12-03T03:12:03.304Z,101118.28
2022-12-03T03:14:29.814Z,101113.34
2022-12-03T03:16:56.447Z,101103.31
2022-12-03T03:19:26.727Z,101103.69
2022-12-03T03:21:53.713Z,101107.72
2022-12-03T03:24:22.072Z,101112.09
2022-12-03T03:26:49.707Z,101114.69
2022-12-03T03:29:16.968Z,101112.81
2022-12-03T03:31:45.992Z,101113.19
2022-12-03T03:34:13.485Z,101111.91
2022-12-03T03:36:40.583Z,101111.00
2022-12-03T03:39:07.392Z,101121.22
2022-12-03T03:41:34.838Z,101113.19
2022-12-03T03:44:03.311Z,101114.31
2022-12-03T03:46:29.969Z,101108.50
2022-12-03T03:48:56.540Z,101103.97
2022-12-03T03:51:23.035Z,101099.00
2022-12-03T03:53:50.398Z,101103.53
2022-12-03T03:56:19.211Z,101102.78
2022-12-03T03:58:45.928Z,101105.34
2022-12-03T04:01:14.091Z,101101.13
2022-12-03T04:03:40.932Z,101105.13
2022-12-03T04:06:08.133Z,101104.19
2022-12-03T04:08:34.675Z,101089.81
2022-12-03T04:11:19.347Z,101090.53
2022-12-03T04:13:45.816Z,101088.16
2022-12-03T04:16:12.263Z,101085.97
2022-12-03T04:18:44.669Z,101075.03
2022-12-03T04:21:39.169Z,101081.03
2022-12-03T04:24:07.468Z,101078.50
2022-12-03T04:26:52.612Z,101077.75
2022-12-03T04:29:20.150Z,101080.66
2022-12-03T04:32:05.241Z,101079.91
2022-12-03T04:34:50.581Z,101078.09
2022-12-03T04:37:17.270Z,101079.91
2022-12-03T04:39:43.948Z,101081.75
2022-12-03T04:42:10.452Z,101075.53
2022-12-03T04:44:36.995Z,101081.38
2022-12-03T04:47:14.993Z,101069.69
2022-12-03T04:49:43.795Z,101073.91
2022-12-03T04:52:12.006Z,101063.69
2022-12-03T04:54:39.187Z,101063.50
2022-12-03T04:57:05.849Z,101071.53
2022-12-03T04:59:32.968Z,101053.84
2022-12-03T05:01:59.559Z,101061.00
2022-12-03T05:04:26.293Z,101055.53
2022-12-03T05:06:52.834Z,101061.34
2022-12-03T05:09:19.401Z,101057.13
2022-12-03T05:11:45.855Z,101064.44
2022-12-03T05:14:12.761Z,101064.97
2022-12-03T05:16:39.647Z,101065.03
2022-12-03T05:19:07.834Z,101067.97
2022-12-03T05:21:34.657Z,101068.53
2022-12-03T05:24:01.184Z,101067.81
2022-12-03T05:26:27.696Z,101070.00
2022-12-03T05:28:54.083Z,101067.13
2022-12-03T05:31:20.590Z,101067.69
2022-12-03T05:33:47.054Z,101061.50
2022-12-03T05:36:13.531Z,101070.63
2022-12-03T05:38:39.926Z,101070.44
2022-12-03T05:41:25.301Z,101074.09
2022-12-03T05:43:51.715Z,101071.72
2022-12-03T05:46:18.220Z,101065.34
2022-12-03T05:48:44.742Z,101067.00
2022-12-03T05:51:11.205Z,101062.41
2022-12-03T05:53:37.571Z,101066.75
2022-12-03T05:56:04.203Z,101068.97
2022-12-03T05:58:30.631Z,101060.97
2022-12-03T06:00:57.015Z,101066.03
2022-12-03T06:03:23.525Z,101064.19
2022-12-03T06:05:50.052Z,101069.44
2022-12-03T06:08:16.513Z,101066.00
2022-12-03T06:10:42.949Z,101052.53
2022-12-03T06:13:09.357Z,101054.56
2022-12-03T06:15:41.965Z,101054.34
2022-12-03T06:18:10.068Z,101062.19
2022-12-03T06:20:36.520Z,101057.44
2022-12-03T06:23:02.920Z,101054.94
2022-12-03T06:25:29.353Z,101053.66
2022-12-03T06:27:55.809Z,101054.56
2022-12-03T06:30:22.216Z,101050.16
2022-12-03T06:32:48.686Z,101050.47
2022-12-03T06:35:15.258Z,101058.84
2022-12-03T06:37:41.690Z,101055.22
2022-12-03T06:40:08.656Z,101053.78
2022-12-03T06:42:35.076Z,101050.91
2022-12-03T06:45:01.564Z,101059.66
2022-12-03T06:47:28.056Z,101060.88
2022-12-03T06:49:54.478Z,101056.69
2022-12-03T06:52:20.942Z,101057.09
2022-12-03T06:55:10.079Z,101052.38
2022-12-03T06:57:36.510Z,101061.13
2022-12-03T07:00:05.135Z,101055.25
2022-12-03T07:02:31.594Z,101054.69
2022-12-03T07:04:58.439Z,101055.59
2022-12-03T07:07:25.233Z,101060.38
2022-12-03T07:09:51.927Z,101052.38
2022-12-03T07:12:18.432Z,101052.53
2022-12-03T07:14:44.852Z,101060.38
2022-12-03T07:17:11.399Z,101060.50
2022-12-03T07:19:39.923Z,101061.41
2022-12-03T07:22:06.402Z,101057.75
2022-12-03T07:24:33.055Z,101059.03
2022-12-03T07:26:59.545Z,101059.94
2022-12-03T07:29:26.059Z,101058.13
2022-12-03T07:31:52.579Z,101063.25
2022-12-03T07:34:19.131Z,101060.84
2022-12-03T07:36:45.565Z,101063.00
2022-12-03T07:39:12.976Z,101057.00
2022-12-03T07:41:39.749Z,101052.09
2022-12-03T07:44:10.832Z,101058.47
2022-12-03T07:46:40.804Z,101055.91
2022-12-03T07:49:07.319Z,101060.63
2022-12-03T07:51:33.976Z,101056.97
2022-12-03T07:54:00.551Z,101046.00
2022-12-03T07:56:26.991Z,101052.03
2022-12-03T07:58:53.503Z,101054.75
2022-12-03T08:01:20.304Z,101050.97
2022-12-03T08:03:46.936Z,101049.66
2022-12-03T08:06:13.392Z,101047.50
2022-12-03T08:08:39.888Z,101043.84
2022-12-03T08:11:06.424Z,101048.72
2022-12-03T08:13:34.644Z,101044.88
2022-12-03T08:16:14.196Z,101049.56
2022-12-03T08:18:40.700Z,101053.63
2022-12-03T08:21:11.543Z,101048.69
2022-12-03T08:23:38.028Z,101036.47
2022-12-03T08:26:15.811Z,101041.53
2022-12-03T08:28:42.856Z,101042.94
2022-12-03T08:31:09.258Z,101055.72
2022-12-03T08:33:37.062Z,101053.16
2022-12-03T08:36:23.072Z,101049.88
2022-12-03T08:38:52.130Z,101052.94
2022-12-03T08:41:40.279Z,101049.81
2022-12-03T08:44:29.039Z,101052.69
2022-12-03T08:47:20.881Z,101051.69
2022-12-03T08:49:58.214Z,101053.41
2022-12-03T08:52:31.492Z,101048.41
2022-12-03T08:54:58.015Z,101058.22
2022-12-03T08:57:28.998Z,101060.03
2022-12-03T09:00:22.276Z,101059.53
2022-12-03T09:02:52.392Z,101059.34
2022-12-03T09:05:26.160Z,101059.84
2022-12-03T09:07:52.639Z,101058.56
2022-12-03T09:10:19.107Z,101061.88
2022-12-03T09:12:45.541Z,101064.34
2022-12-03T09:15:11.976Z,101063.59
2022-12-03T09:17:38.517Z,101069.81
2022-12-03T09:20:06.103Z,101071.78
2022-12-03T09:22:32.548Z,101051.16
2022-12-03T09:24:59.002Z,101057.34
2022-12-03T09:27:26.111Z,101062.69
2022-12-03T09:29:52.523Z,101056.50
2022-12-03T09:32:19.270Z,101062.47
2022-12-03T09:34:46.022Z,101056.56
2022-12-03T09:37:12.415Z,101055.06
2022-12-03T09:39:38.821Z,101057.47
2022-12-03T09:42:05.598Z,101050.03
2022-12-03T09:44:34.440Z,101046.31
2022-12-03T09:47:02.082Z,101041.03
2022-12-03T09:49:31.743Z,101050.34
2022-12-03T09:52:00.773Z,101050.59
2022-12-03T09:54:28.916Z,101042.94
2022-12-03T09:56:57.588Z,101045.31
2022-12-03T09:59:27.429Z,101036.56
2022-12-03T10:01:54.238Z,101038.03
2022-12-03T10:04:20.934Z,101037.16
2022-12-03T10:06:47.898Z,101032.22
2022-12-03T10:09:22.216Z,101026.66
2022-12-03T10:11:48.984Z,101025.94
2022-12-03T10:14:18.854Z,101032.88
2022-12-03T10:16:45.936Z,101026.44
2022-12-03T10:19:25.598Z,101030.81
2022-12-03T10:21:52.164Z,101027.03
2022-12-03T10:24:30.562Z,101022.06
2022-12-03T10:26:59.620Z,101020.25
2022-12-03T10:29:33.600Z,101021.09
2022-12-03T10:32:04.486Z,101019.59
2022-12-03T10:34:34.484Z,101017.13
2022-12-03T10:37:21.545Z,101016.81
2022-12-03T10:40:09.172Z,100997.56
2022-12-03T10:42:41.238Z,101005.09
2022-12-03T10:45:20.884Z,100999.22
2022-12-03T10:48:15.100Z,100995.38
2022-12-03T10:51:02.419Z,100991.47
2022-12-03T10:53:31.923Z,100995.38
2022-12-03T10:56:07.156Z,100990.97
2022-12-03T10:58:38.566Z,100986.78
2022-12-03T11:01:16.738Z,100985.88
2022-12-03T11:03:44.143Z,100974.16
2022-12-03T11:06:16.016Z,100979.44
2022-12-03T11:08:45.374Z,100977.47
2022-12-03T11:11:27.069Z,100973.25
2022-12-03T11:13:58.637Z,100976.91
2022-12-03T11:16:44.898Z,100967.16
2022-12-03T11:19:37.361Z,100969.38
2022-12-03T11:22:04.272Z,100964.84
2022-12-03T11:24:32.707Z,100969.38
2022-12-03T11:26:59.086Z,100968.81
2022-12-03T11:29:50.514Z,100962.28
2022-12-03T11:32:38.955Z,100964.84
2022-12-03T11:35:26.505Z,100974.09
2022-12-03T11:37:53.108Z,100976.41
2022-12-03T11:40:19.451Z,100970.53
2022-12-03T11:42:47.997Z,100965.84
2022-12-03T11:45:31.454Z,100967.66
2022-12-03T11:47:57.866Z,100964.22
2022-12-03T11:50:28.731Z,100960.72
2022-12-03T11:53:11.037Z,100955.59
2022-12-03T11:55:48.374Z,100958.75
2022-12-03T11:58:35.907Z,100954.53
2022-12-03T12:01:05.360Z,100949.91
2022-12-03T12:03:33.535Z,100944.25
2022-12-03T12:06:08.996Z,100933.25
2022-12-03T12:08:38.349Z,100942.72
2022-12-03T12:11:16.643Z,100937.47
2022-12-03T12:13:42.974Z,100941.91
2022-12-03T12:16:10.124Z,100947.22
2022-12-03T12:18:44.425Z,100944.78
2022-12-03T12:21:43.633Z,100946.03
2022-12-03T12:24:28.087Z,100954.47
2022-12-03T12:26:55.593Z,100949.69
2022-12-03T12:29:22.087Z,100946.72
2022-12-03T12:31:53.651Z,100942.19
2022-12-03T12:34:20.706Z,100937.97
2022-12-03T12:36:47.162Z,100940.84
2022-12-03T12:39:15.118Z,100941.09
2022-12-03T12:41:42.377Z,100923.44
2022-12-03T12:44:13.941Z,100928.22
2022-12-03T12:46:48.201Z,100925.75
2022-12-03T12:49:15.842Z,100910.66
2022-12-03T12:51:47.475Z,100908.44
2022-12-03T12:54:16.468Z,100909.47
2022-12-03T12:56:44.979Z,100899.84
2022-12-03T12:59:14.265Z,100899.22
2022-12-03T13:01:41.629Z,100891.78
2022-12-03T13:04:22.574Z,100889.22
2022-12-03T13:06:52.555Z,100894.50
2022-12-03T13:09:22.184Z,100893.25
2022-12-03T13:12:19.355Z,100894.22
2022-12-03T13:14:45.848Z,100899.81
2022-12-03T13:17:24.480Z,100894.13
2022-12-03T13:20:00.430Z,100893.22
2022-12-03T13:22:31.768Z,100888.69
2022-12-03T13:25:03.531Z,100896.53
2022-12-03T13:27:29.990Z,100893.06
2022-12-03T13:30:03.099Z,100896.19
2022-12-03T13:32:41.377Z,100902.22
2022-12-03T13:35:10.571Z,100892.50
2022-12-03T13:37:37.508Z,100894.00
2022-12-03T13:40:28.763Z,100887.81
2022-12-03T13:42:55.200Z,100886.31
2022-12-03T13:45:24.599Z,100889.19
2022-12-03T13:47:56.628Z,100889.78
2022-12-03T13:50:39.590Z,100893.72
2022-12-03T13:53:38.704Z,100889.19
2022-12-03T13:56:36.236Z,100884.56
2022-12-03T13:59:04.013Z,100881.28
2022-12-03T14:01:30.632Z,100881.59
2022-12-03T14:03:57.261Z,100885.66
2022-12-03T14:06:23.654Z,100877.78
2022-12-03T14:08:50.180Z,100883.50
2022-12-03T14:11:42.869Z,100867.84
2022-12-03T14:14:09.360Z,100873.63
2022-12-03T14:16:35.875Z,100870.56
2022-12-03T14:19:03.003Z,100872.38
2022-12-03T14:21:29.415Z,100877.28
2022-12-03T14:23:55.821Z,100882.75
2022-12-03T14:26:22.257Z,100879.41
2022-12-03T14:28:48.774Z,100882.16
2022-12-03T14:31:15.256Z,100887.09
2022-12-03T14:33:41.838Z,100891.16
2022-12-03T14:36:08.608Z,100897.16
2022-12-03T14:38:35.035Z,100898.69
2022-12-03T14:41:01.496Z,100903.34
2022-12-03T14:43:28.019Z,100895.66
2022-12-03T14:45:54.546Z,100909.53
2022-12-03T14:48:20.980Z,100907.75
2022-12-03T14:50:47.590Z,100914.50
2022-12-03T14:53:14.015Z,100909.53
2022-12-03T14:55:40.488Z,100916.91
2022-12-03T14:58:07.000Z,100920.75
2022-12-03T15:00:33.512Z,100924.09
2022-12-03T15:03:00.185Z,100924.25
2022-12-03T15:05:28.784Z,100919.78
2022-12-03T15:07:55.867Z,100923.09
2022-12-03T15:10:22.485Z,100915.56
2022-12-03T15:12:48.927Z,100923.81
2022-12-03T15:15:15.372Z,100923.31
2022-12-03T15:17:45.508Z,100925.88
2022-12-03T15:20:12.754Z,100925.75
2022-12-03T15:22:39.181Z,100926.66
2022-12-03T15:25:07.565Z,100926.66
2022-12-03T15:27:33.987Z,100925.28
2022-12-03T15:30:00.407Z,100927.84
2022-12-03T15:32:26.853Z,100930.75
2022-12-03T15:34:53.362Z,100928.44
2022-12-03T15:37:19.827Z,100925.88
2022-12-03T15:39:48.667Z,100920.19
2022-12-03T15:42:15.454Z,100919.28
2022-12-03T15:44:41.972Z,100925.16
2022-12-03T15:47:08.410Z,100927.53
2022-12-03T15:49:34.865Z,100922.13
2022-12-03T15:52:01.363Z,100921.22
2022-12-03T15:54:27.897Z,100927.22
2022-12-03T15:56:57.458Z,100925.75
2022-12-03T15:59:24.485Z,100929.03
2022-12-03T16:01:51.100Z,100927.22
2022-12-03T16:04:17.566Z,100923.91
2022-12-03T16:06:43.987Z,100928.31
2022-12-03T16:09:10.503Z,100925.16
2022-12-03T16:11:36.892Z,100933.91
2022-12-03T16:14:03.316Z,100932.97
2022-12-03T16:16:29.789Z,100930.75
2022-12-03T16:18:56.267Z,100931.50
2022-12-03T16:21:26.729Z,100927.72
2022-12-03T16:23:53.541Z,100931.59
2022-12-03T16:26:19.959Z,100929.78
2022-12-03T16:28:46.432Z,100924.50
2022-12-03T16:31:12.891Z,100936.78
2022-12-03T16:33:39.374Z,100931.38
2022-12-03T16:36:05.997Z,100930.78
2022-12-03T16:38:33.566Z,100934.25
2022-12-03T16:41:01.194Z,100932.56
2022-12-03T16:43:28.004Z,100927.06
2022-12-03T16:46:20.614Z,100933.25
2022-12-03T16:48:48.189Z,100929.03
2022-12-03T16:51:14.616Z,100931.44
2022-12-03T16:53:42.535Z,100933.25
2022-12-03T16:56:09.053Z,100938.78
2022-12-03T16:58:35.519Z,100932.25
2022-12-03T17:01:01.982Z,100941.91
2022-12-03T17:03:33.595Z,100937.56
2022-12-03T17:06:01.006Z,100938.63
2022-12-03T17:08:27.528Z,100943.75
2022-12-03T17:10:54.102Z,100947.19
2022-12-03T17:13:20.603Z,100935.31
2022-12-03T17:15:47.097Z,100938.03
2022-12-03T17:18:13.544Z,100942.22
2022-12-03T17:20:40.047Z,100936.78
2022-12-03T17:23:06.540Z,100935.31
2022-12-03T17:25:34.083Z,100936.56
2022-12-03T17:28:01.093Z,100937.28
2022-12-03T17:30:27.839Z,100932.34
2022-12-03T17:32:54.274Z,100929.44
2022-12-03T17:35:20.694Z,100930.19
2022-12-03T17:37:47.172Z,100932.25
2022-12-03T17:40:15.271Z,100929.53
2022-12-03T17:42:41.693Z,100920.22
2022-12-03T17:45:08.874Z,100932.84
2022-12-03T17:47:35.285Z,100922.44
2022-12-03T17:50:02.150Z,100924.09
2022-12-03T17:52:28.571Z,100923.34
2022-12-03T17:55:10.474Z,100927.38
2022-12-03T17:57:37.551Z,100923.78
2022-12-03T18:00:04.852Z,100925.09
2022-12-03T18:02:31.274Z,100917.81
2022-12-03T18:04:57.692Z,100915.66
2022-12-03T18:07:24.115Z,100912.78
2022-12-03T18:09:50.549Z,100924.50
2022-12-03T18:12:17.105Z,100921.94
2022-12-03T18:14:43.576Z,100919.09
2022-12-03T18:17:10.069Z,100914.09
2022-12-03T18:19:36.566Z,100918.31
2022-12-03T18:22:03.000Z,100908.44
2022-12-03T18:24:29.506Z,100905.44
2022-12-03T18:26:55.949Z,100913.56
2022-12-03T18:29:22.457Z,100910.66
2022-12-03T18:31:48.967Z,100916.53
2022-12-03T18:34:15.422Z,100906.28
2022-12-03T18:36:42.187Z,100911.22
2022-12-03T18:39:20.027Z,100907.78
2022-12-03T18:41:46.590Z,100912.72
2022-12-03T18:44:12.993Z,100910.03
2022-12-03T18:46:55.160Z,100910.16
2022-12-03T18:49:22.130Z,100910.03
2022-12-03T18:51:49.382Z,100918.00
2022-12-03T18:54:17.739Z,100913.78
2022-12-03T18:56:44.446Z,100914.88
2022-12-03T18:59:11.184Z,100912.88
2022-12-03T19:01:37.782Z,100916.16
2022-12-03T19:04:04.389Z,100912.13
2022-12-03T19:06:30.925Z,100913.97
2022-12-03T19:08:57.764Z,100910.50
2022-12-03T19:11:24.295Z,100917.41
2022-12-03T19:13:51.355Z,100914.28
2022-12-03T19:16:17.848Z,100915.34
2022-12-03T19:18:44.848Z,100907.28
2022-12-03T19:21:16.070Z,100908.75
2022-12-03T19:24:04.269Z,100905.44
2022-12-03T19:26:30.126Z,100909.41
2022-12-03T19:28:56.609Z,100904.44
2022-12-03T19:31:23.232Z,100912.28
2022-12-03T19:33:50.716Z,100911.22
2022-12-03T19:36:22.855Z,100912.47
2022-12-03T19:38:56.688Z,100907.94
2022-12-03T19:41:26.672Z,100918.16
2022-12-03T19:43:55.347Z,100911.72
2022-12-03T19:46:23.342Z,100908.56
2022-12-03T19:48:50.135Z,100912.94
2022-12-03T19:51:33.639Z,100912.19
2022-12-03T19:54:01.805Z,100908.06
2022-12-03T19:56:30.222Z,100901.66
2022-12-03T19:58:57.258Z,100907.97
2022-12-03T20:01:29.632Z,100909.06
2022-12-03T20:03:58.750Z,100911.59
2022-12-03T20:06:28.707Z,100912.38
2022-12-03T20:09:00.141Z,100914.34
2022-12-03T20:11:27.802Z,100910.13
2022-12-03T20:13:57.481Z,100910.28
2022-12-03T20:16:24.899Z,100907.75
2022-12-03T20:18:55.464Z,100907.56
2022-12-03T20:21:21.924Z,100907.75
2022-12-03T20:23:48.398Z,100906.25
2022-12-03T20:26:17.697Z,100908.22
2022-12-03T20:28:45.226Z,100910.28
2022-12-03T20:31:14.520Z,100909.53
2022-12-03T20:33:43.468Z,100902.63
2022-12-03T20:36:11.444Z,100888.47
2022-12-03T20:38:38.461Z,100889.81
2022-12-03T20:41:10.104Z,100881.81
2022-12-03T20:43:39.951Z,100876.28
2022-12-03T20:46:14.884Z,100877.19
2022-12-03T20:48:42.456Z,100879.91
2022-12-03T20:51:12.120Z,100877.94
2022-12-03T20:53:39.030Z,100873.13
2022-12-03T20:56:06.699Z,100868.59
2022-12-03T20:58:33.633Z,100864.84
2022-12-03T21:01:30.331Z,100871.44
2022-12-03T21:03:57.231Z,100871.91
2022-12-03T21:06:26.136Z,100870.09
2022-12-03T21:08:54.264Z,100860.31
2022-12-03T21:11:24.512Z,100867.97
2022-12-03T21:13:51.047Z,100862.88
2022-12-03T21:16:45.559Z,100868.72
2022-12-03T21:19:10.272Z,100864.50
2022-12-03T21:21:36.709Z,100866.44
2022-12-03T21:24:03.379Z,100868.22
2022-12-03T21:26:29.811Z,100861.63
2022-12-03T21:28:56.243Z,100856.69
2022-12-03T21:31:25.821Z,100858.16
2022-12-03T21:33:54.136Z,100860.56
2022-12-03T21:36:20.703Z,100861.31
2022-12-03T21:38:48.170Z,100861.31
2022-12-03T21:41:15.504Z,100857.41
2022-12-03T21:43:43.128Z,100851.56
2022-12-03T21:47:11.575Z,100850.06
2022-12-03T21:49:00.009Z,100848.41
2022-12-03T21:51:26.413Z,100846.44
2022-12-03T21:53:53.384Z,100849.09
2022-12-03T21:56:19.868Z,100842.34
2022-12-03T21:58:46.456Z,100842.06
2022-12-03T22:01:18.907Z,100831.25
2022-12-03T22:03:45.790Z,100834.06
2022-12-03T22:06:13.118Z,100834.66
2022-12-03T22:08:40.270Z,100831.22
2022-12-03T22:11:09.179Z,100827.56
2022-12-03T22:13:38.081Z,100819.63
2022-12-03T22:16:07.104Z,100824.16
2022-12-03T22:18:33.997Z,100826.72
2022-12-03T22:21:05.282Z,100831.81
2022-12-03T22:23:32.244Z,100826.56
2022-12-03T22:26:01.574Z,100828.53
2022-12-03T22:28:28.060Z,100831.41
2022-12-03T22:30:54.985Z,100832.72
2022-12-03T22:33:21.754Z,100839.97
2022-12-03T22:35:59.262Z,100841.47
2022-12-03T22:38:26.004Z,100837.59
2022-12-03T22:40:52.667Z,100840.16
2022-12-03T22:43:19.478Z,100836.69
2022-12-03T22:45:46.079Z,100836.94
2022-12-03T22:48:12.685Z,100831.81
2022-12-03T22:50:44.622Z,100839.50
2022-12-03T22:53:11.911Z,100835.47
2022-12-03T22:55:38.727Z,100837.28
2022-12-03T22:58:05.924Z,100837.84
2022-12-03T23:00:35.573Z,100833.66
2022-12-03T23:03:02.684Z,100835.03
2022-12-03T23:05:34.387Z,100829.91
2022-12-03T23:08:00.976Z,100828.09
2022-12-03T23:10:32.429Z,100827.38
2022-12-03T23:13:00.459Z,100818.78
2022-12-03T23:15:26.900Z,100821.19
2022-12-03T23:17:53.293Z,100817.72
2022-12-03T23:20:19.696Z,100817.13
2022-12-03T23:22:48.496Z,100802.50
2022-12-03T23:25:15.500Z,100806.84
2022-12-03T23:27:43.288Z,100802.19
2022-12-03T23:30:11.085Z,100801.47
2022-12-03T23:32:38.233Z,100796.34
2022-12-03T23:35:05.516Z,100791.66
2022-12-03T23:37:31.962Z,100788.34
2022-12-03T23:39:58.368Z,100781.00
2022-12-03T23:42:24.934Z,100784.28
2022-12-03T23:44:51.432Z,100784.78
2022-12-03T23:47:17.840Z,100781.47
2022-12-03T23:49:44.339Z,100782.50
2022-12-03T23:52:10.734Z,100770.78
2022-12-03T23:54:37.939Z,100765.97
2022-12-03T23:57:04.461Z,100774.28
2022-12-03T23:59:30.945Z,100761.50
